createdAt,value
2018-09-13T00:00:33.377Z,101401.98
2018-09-13T00:03:03.137Z,101401.25
2018-09-13T00:05:32.702Z,101396.94
2018-09-13T00:08:02.446Z,101397.17
2018-09-13T00:10:31.853Z,101399.64
2018-09-13T00:13:01.544Z,101391.67
2018-09-13T00:15:30.975Z,101393.34
2018-09-13T00:18:00.659Z,101388.05
2018-09-13T00:20:30.088Z,101390.09
2018-09-13T00:22:59.902Z,101384.62
2018-09-13T00:25:29.505Z,101376.26
2018-09-13T00:27:59.239Z,101379.29
2018-09-13T00:30:28.811Z,101383.87
2018-09-13T00:32:58.633Z,101380.08
2018-09-13T00:35:28.129Z,101387.68
2018-09-13T00:37:57.701Z,101387.80
2018-09-13T00:40:27.126Z,101378.20
2018-09-13T00:42:56.810Z,101368.91
2018-09-13T00:45:26.542Z,101373.63
2018-09-13T00:47:56.406Z,101366.64
2018-09-13T00:50:25.860Z,101371.09
2018-09-13T00:52:55.921Z,101376.98
2018-09-13T00:55:25.652Z,101365.42
2018-09-13T00:57:55.093Z,101366.17
2018-09-13T01:00:25.023Z,101366.51
2018-09-13T01:02:54.838Z,101371.84
2018-09-13T01:05:24.561Z,101375.81
2018-09-13T01:07:54.362Z,101376.83
2018-09-13T01:10:24.222Z,101372.67
2018-09-13T01:12:53.729Z,101375.47
2018-09-13T01:15:23.146Z,101374.98
2018-09-13T01:17:52.873Z,101385.84
2018-09-13T01:20:22.583Z,101382.41
2018-09-13T01:22:52.289Z,101381.05
2018-09-13T01:25:21.891Z,101376.10
2018-09-13T01:27:52.021Z,101388.95
2018-09-13T01:30:21.814Z,101378.64
2018-09-13T01:32:51.473Z,101380.20
2018-09-13T01:35:20.963Z,101371.70
2018-09-13T01:37:50.452Z,101370.86
2018-09-13T01:40:19.878Z,101380.23
2018-09-13T01:42:49.761Z,101375.91
2018-09-13T01:45:19.139Z,101372.83
2018-09-13T01:47:48.838Z,101365.55
2018-09-13T01:50:54.860Z,101375.83
2018-09-13T01:53:24.324Z,101371.52
2018-09-13T01:55:53.990Z,101373.59
2018-09-13T01:58:23.622Z,101370.20
2018-09-13T02:00:53.527Z,101351.95
2018-09-13T02:03:23.352Z,101358.42
2018-09-13T02:05:53.060Z,101354.33
2018-09-13T02:08:22.819Z,101356.45
2018-09-13T02:10:52.587Z,101355.19
2018-09-13T02:13:22.275Z,101353.42
2018-09-13T02:15:52.257Z,101349.72
2018-09-13T02:18:22.034Z,101341.43
2018-09-13T02:20:51.735Z,101340.58
2018-09-13T02:23:21.138Z,101342.38
2018-09-13T02:25:50.879Z,101344.16
2018-09-13T02:28:20.333Z,101342.53
2018-09-13T02:30:50.117Z,101346.08
2018-09-13T02:33:19.851Z,101342.59
2018-09-13T02:35:49.748Z,101334.00
2018-09-13T02:38:19.190Z,101330.00
2018-09-13T02:40:48.768Z,101336.02
2018-09-13T02:43:18.181Z,101325.14
2018-09-13T02:45:48.816Z,101321.87
2018-09-13T02:48:18.362Z,101314.06
2018-09-13T02:50:48.244Z,101306.39
2018-09-13T02:53:17.909Z,101310.57
2018-09-13T02:55:48.470Z,101311.03
2018-09-13T02:58:18.141Z,101313.50
2018-09-13T03:00:48.648Z,101313.11
2018-09-13T03:03:18.256Z,101311.89
2018-09-13T03:05:48.386Z,101314.06
2018-09-13T03:08:17.927Z,101318.30
2018-09-13T03:10:48.689Z,101314.50
2018-09-13T03:13:18.335Z,101311.94
2018-09-13T03:15:48.403Z,101312.09
2018-09-13T03:18:17.963Z,101306.08
2018-09-13T03:20:48.427Z,101309.10
2018-09-13T03:23:17.983Z,101304.06
2018-09-13T03:25:48.407Z,101312.05
2018-09-13T03:28:18.142Z,101311.95
2018-09-13T03:30:48.470Z,101314.59
2018-09-13T03:33:18.049Z,101307.55
2018-09-13T03:35:48.407Z,101308.87
2018-09-13T03:38:18.333Z,101311.73
2018-09-13T03:40:48.304Z,101301.22
2018-09-13T03:43:17.760Z,101303.70
2018-09-13T03:45:48.601Z,101299.36
2018-09-13T03:48:18.203Z,101300.67
2018-09-13T03:50:48.403Z,101307.09
2018-09-13T03:53:18.061Z,101301.08
2018-09-13T03:55:48.537Z,101295.52
2018-09-13T03:58:18.231Z,101291.42
2018-09-13T04:00:48.671Z,101294.05
2018-09-13T04:03:18.681Z,101299.30
2018-09-13T04:05:48.625Z,101300.92
2018-09-13T04:08:18.209Z,101295.61
2018-09-13T04:10:48.698Z,101297.29
2018-09-13T04:13:18.344Z,101293.34
2018-09-13T04:15:48.687Z,101293.75
2018-09-13T04:18:18.254Z,101297.75
2018-09-13T04:20:48.474Z,101304.02
2018-09-13T04:23:18.204Z,101303.80
2018-09-13T04:25:48.563Z,101301.99
2018-09-13T04:28:19.505Z,101298.94
2018-09-13T04:30:49.294Z,101295.02
2018-09-13T04:33:18.702Z,101302.91
2018-09-13T04:35:48.831Z,101303.06
2018-09-13T04:38:18.402Z,101309.72
2018-09-13T04:40:48.433Z,101305.22
2018-09-13T04:43:17.875Z,101310.17
2018-09-13T04:45:48.835Z,101313.72
2018-09-13T04:48:18.383Z,101312.03
2018-09-13T04:50:48.513Z,101316.13
2018-09-13T04:53:18.465Z,101310.17
2018-09-13T04:55:49.038Z,101308.71
2018-09-13T04:58:18.770Z,101308.31
2018-09-13T05:00:48.790Z,101314.73
2018-09-13T05:03:18.489Z,101306.47
2018-09-13T05:05:48.682Z,101310.47
2018-09-13T05:08:18.254Z,101306.22
2018-09-13T05:10:49.011Z,101308.70
2018-09-13T05:13:18.556Z,101312.64
2018-09-13T05:15:48.741Z,101309.70
2018-09-13T05:18:18.464Z,101313.20
2018-09-13T05:20:48.701Z,101315.02
2018-09-13T05:23:18.357Z,101312.09
2018-09-13T05:25:48.856Z,101324.30
2018-09-13T05:28:18.500Z,101315.02
2018-09-13T05:30:48.834Z,101320.67
2018-09-13T05:33:18.486Z,101321.68
2018-09-13T05:35:48.668Z,101315.88
2018-09-13T05:38:18.789Z,101316.83
2018-09-13T05:40:48.704Z,101313.10
2018-09-13T05:43:18.457Z,101316.03
2018-09-13T05:45:48.753Z,101319.77
2018-09-13T05:48:18.428Z,101315.83
2018-09-13T05:50:48.894Z,101327.88
2018-09-13T05:53:18.470Z,101329.16
2018-09-13T05:55:48.922Z,101332.82
2018-09-13T05:58:18.520Z,101334.44
2018-09-13T06:00:49.056Z,101325.80
2018-09-13T06:03:18.687Z,101322.45
2018-09-13T06:05:48.894Z,101330.66
2018-09-13T06:08:18.890Z,101324.38
2018-09-13T06:10:48.738Z,101325.84
2018-09-13T06:13:18.526Z,101326.78
2018-09-13T06:15:48.988Z,101328.41
2018-09-13T06:18:18.753Z,101327.01
2018-09-13T06:20:48.932Z,101332.75
2018-09-13T06:23:18.818Z,101335.37
2018-09-13T06:25:48.865Z,101336.30
2018-09-13T06:28:18.632Z,101340.30
2018-09-13T06:33:30.632Z,101337.31
2018-09-13T06:36:00.453Z,101338.68
2018-09-13T06:38:30.293Z,101350.91
2018-09-13T06:40:59.999Z,101341.38
2018-09-13T06:43:29.571Z,101344.78
2018-09-13T06:45:59.250Z,101348.81
2018-09-13T06:48:28.894Z,101350.12
2018-09-13T06:50:58.721Z,101346.18
2018-09-13T06:53:32.523Z,101348.27
2018-09-13T06:56:02.207Z,101340.84
2018-09-13T06:58:31.767Z,101351.51
2018-09-13T07:01:01.539Z,101343.86
2018-09-13T07:03:30.997Z,101345.17
2018-09-13T07:06:00.691Z,101342.45
2018-09-13T07:08:30.079Z,101339.69
2018-09-13T07:10:59.983Z,101340.55
2018-09-13T07:13:29.526Z,101343.08
2018-09-13T07:15:59.250Z,101338.98
2018-09-13T07:18:28.774Z,101341.16
2018-09-13T07:20:58.489Z,101344.04
2018-09-13T07:23:28.071Z,101341.75
2018-09-13T07:25:57.956Z,101340.34
2018-09-13T07:28:27.686Z,101338.12
2018-09-13T07:30:57.633Z,101340.91
2018-09-13T07:33:27.234Z,101344.76
2018-09-13T07:35:57.231Z,101349.85
2018-09-13T07:38:26.842Z,101348.69
2018-09-13T07:40:56.609Z,101350.86
2018-09-13T07:43:26.080Z,101351.41
2018-09-13T07:45:55.744Z,101358.89
2018-09-13T07:48:25.181Z,101360.61
2018-09-13T07:50:54.856Z,101357.98
2018-09-13T07:53:24.371Z,101359.29
2018-09-13T07:55:54.083Z,101359.52
2018-09-13T07:58:23.953Z,101360.91
2018-09-13T08:00:53.764Z,101366.57
2018-09-13T08:03:23.186Z,101364.86
2018-09-13T08:05:52.866Z,101364.00
2018-09-13T08:08:22.356Z,101368.10
2018-09-13T08:10:52.088Z,101370.34
2018-09-13T08:13:21.724Z,101374.94
2018-09-13T08:15:51.183Z,101379.95
2018-09-13T08:18:20.774Z,101384.96
2018-09-13T08:20:50.475Z,101382.17
2018-09-13T08:23:20.084Z,101373.92
2018-09-13T08:25:49.851Z,101383.58
2018-09-13T08:28:19.400Z,101378.78
2018-09-13T08:30:49.149Z,101384.98
2018-09-13T08:33:18.914Z,101385.44
2018-09-13T08:35:49.098Z,101388.98
2018-09-13T08:38:18.918Z,101393.02
2018-09-13T08:40:49.227Z,101403.22
2018-09-13T08:43:18.818Z,101397.71
2018-09-13T08:45:48.978Z,101405.21
2018-09-13T08:48:18.451Z,101404.75
2018-09-13T08:50:49.203Z,101405.47
2018-09-13T08:53:18.839Z,101402.07
2018-09-13T08:55:49.293Z,101398.03
2018-09-13T08:58:18.839Z,101392.69
2018-09-13T09:00:49.036Z,101372.52
2018-09-13T09:03:18.772Z,101370.91
2018-09-13T09:05:49.162Z,101365.95
2018-09-13T09:08:18.869Z,101366.96
2018-09-13T09:10:49.280Z,101375.16
2018-09-13T09:13:18.905Z,101386.44
2018-09-13T09:15:49.118Z,101389.37
2018-09-13T09:18:18.753Z,101386.44
2018-09-13T09:20:49.262Z,101385.13
2018-09-13T09:23:18.876Z,101380.88
2018-09-13T09:25:49.237Z,101387.91
2018-09-13T09:28:18.898Z,101386.34
2018-09-13T09:30:49.381Z,101381.94
2018-09-13T09:33:19.016Z,101385.67
2018-09-13T09:35:49.162Z,101389.37
2018-09-13T09:38:18.877Z,101393.02
2018-09-13T09:40:49.377Z,101395.25
2018-09-13T09:43:19.179Z,101391.09
2018-09-13T09:45:49.154Z,101396.96
2018-09-13T09:48:18.804Z,101393.78
2018-09-13T09:50:49.293Z,101396.25
2018-09-13T09:53:19.022Z,101394.17
2018-09-13T09:55:49.295Z,101397.66
2018-09-13T09:58:19.587Z,101401.77
2018-09-13T10:00:54.360Z,101392.01
2018-09-13T10:03:23.946Z,101400.75
2018-09-13T10:05:53.697Z,101393.56
2018-09-13T10:08:23.277Z,101395.34
2018-09-13T10:10:52.969Z,101394.79
2018-09-13T10:13:22.452Z,101392.55
2018-09-13T10:15:57.252Z,101396.65
2018-09-13T10:18:32.345Z,101392.16
2018-09-13T10:21:07.395Z,101387.81
2018-09-13T10:23:42.326Z,101396.20
2018-09-13T10:26:17.678Z,101393.87
2018-09-13T10:28:53.663Z,101389.77
2018-09-13T10:31:28.441Z,101384.41
2018-09-13T10:35:06.163Z,101393.60
2018-09-13T10:37:41.058Z,101394.20
2018-09-13T10:40:15.898Z,101390.70
2018-09-13T10:42:50.629Z,101383.56
2018-09-13T10:45:25.832Z,101393.37
2018-09-13T10:48:00.994Z,101389.53
2018-09-13T10:50:35.676Z,101393.06
2018-09-13T10:53:12.906Z,101379.84
2018-09-13T10:55:42.514Z,101379.05
2018-09-13T10:58:12.049Z,101379.64
2018-09-13T11:00:41.522Z,101374.45
2018-09-13T11:03:11.111Z,101380.31
2018-09-13T11:05:40.722Z,101376.95
2018-09-13T11:08:10.648Z,101377.08
2018-09-13T11:10:40.364Z,101375.38
2018-09-13T11:13:13.838Z,101376.92
2018-09-13T11:15:43.797Z,101384.48
2018-09-13T11:18:13.262Z,101385.53
2018-09-13T11:20:42.753Z,101383.66
2018-09-13T11:23:12.210Z,101384.25
2018-09-13T11:25:41.945Z,101379.77
2018-09-13T11:28:11.454Z,101370.91
2018-09-13T11:30:41.113Z,101366.71
2018-09-13T11:33:10.987Z,101364.20
2018-09-13T11:35:40.539Z,101359.11
2018-09-13T11:38:10.105Z,101355.44
2018-09-13T11:40:39.756Z,101356.83
2018-09-13T11:43:09.264Z,101357.22
2018-09-13T11:45:38.707Z,101362.22
2018-09-13T11:48:08.465Z,101358.55
2018-09-13T11:50:38.185Z,101359.87
2018-09-13T11:53:08.007Z,101355.09
2018-09-13T11:55:41.581Z,101356.13
2018-09-13T11:58:13.313Z,101352.01
2018-09-13T12:00:43.319Z,101349.21
2018-09-13T12:03:13.746Z,101349.21
2018-09-13T12:05:43.932Z,101347.16
2018-09-13T12:08:13.500Z,101343.98
2018-09-13T12:10:42.913Z,101349.05
2018-09-13T12:13:12.407Z,101351.72
2018-09-13T12:15:42.089Z,101343.13
2018-09-13T12:18:12.634Z,101347.77
2018-09-13T12:20:42.472Z,101345.20
2018-09-13T12:23:12.207Z,101343.20
2018-09-13T12:25:41.990Z,101346.45
2018-09-13T12:28:11.453Z,101342.59
2018-09-13T12:30:41.232Z,101339.19
2018-09-13T12:33:10.631Z,101340.06
2018-09-13T12:35:40.374Z,101337.41
2018-09-13T12:38:10.242Z,101337.04
2018-09-13T12:40:39.699Z,101337.21
2018-09-13T12:43:09.526Z,101331.94
2018-09-13T12:45:39.214Z,101332.98
2018-09-13T12:48:09.098Z,101335.98
2018-09-13T12:50:38.647Z,101331.86
2018-09-13T12:53:08.402Z,101331.00
2018-09-13T12:55:43.170Z,101330.12
2018-09-13T12:58:12.940Z,101331.63
2018-09-13T13:00:42.471Z,101327.28
2018-09-13T13:03:12.215Z,101320.95
2018-09-13T13:05:41.822Z,101319.09
2018-09-13T13:08:11.414Z,101318.59
2018-09-13T13:10:40.903Z,101314.83
2018-09-13T13:13:10.678Z,101310.28
2018-09-13T13:15:40.350Z,101322.17
2018-09-13T13:18:10.663Z,101317.85
2018-09-13T13:20:40.864Z,101306.78
2018-09-13T13:23:10.578Z,101309.54
2018-09-13T13:25:40.363Z,101306.16
2018-09-13T13:28:09.828Z,101304.48
2018-09-13T13:30:39.499Z,101310.59
2018-09-13T13:33:08.998Z,101304.83
2018-09-13T13:35:38.655Z,101303.98
2018-09-13T13:38:08.204Z,101300.98
2018-09-13T13:40:37.627Z,101299.47
2018-09-13T13:43:07.639Z,101293.22
2018-09-13T13:45:37.408Z,101289.45
2018-09-13T13:48:07.590Z,101286.41
2018-09-13T13:50:36.998Z,101289.91
2018-09-13T13:53:06.769Z,101288.63
2018-09-13T13:55:36.573Z,101288.51
2018-09-13T13:58:06.711Z,101286.71
2018-09-13T14:03:22.361Z,101284.47
2018-09-13T14:05:52.135Z,101284.63
2018-09-13T14:08:21.695Z,101279.14
2018-09-13T14:10:51.505Z,101272.91
2018-09-13T14:13:20.974Z,101280.45
2018-09-13T14:15:50.784Z,101278.22
2018-09-13T14:18:20.474Z,101280.59
2018-09-13T14:20:50.010Z,101276.36
2018-09-13T14:23:19.835Z,101277.14
2018-09-13T14:25:50.357Z,101277.21
2018-09-13T14:28:19.815Z,101275.97
2018-09-13T14:30:49.899Z,101274.84
2018-09-13T14:33:19.462Z,101279.27
2018-09-13T14:35:49.855Z,101273.53
2018-09-13T14:38:19.665Z,101271.27
2018-09-13T14:40:50.073Z,101272.20
2018-09-13T14:43:19.825Z,101270.33
2018-09-13T14:45:49.935Z,101267.42
2018-09-13T14:48:19.736Z,101261.94
2018-09-13T14:50:50.149Z,101261.08
2018-09-13T14:53:19.775Z,101256.33
2018-09-13T14:55:49.950Z,101252.89
2018-09-13T14:58:19.681Z,101250.78
2018-09-13T15:00:50.115Z,101252.48
2018-09-13T15:03:20.565Z,101253.81
2018-09-13T15:05:50.096Z,101251.11
2018-09-13T15:08:19.679Z,101246.75
2018-09-13T15:10:49.984Z,101248.52
2018-09-13T15:13:19.597Z,101244.44
2018-09-13T15:15:50.042Z,101237.36
2018-09-13T15:18:19.808Z,101240.18
2018-09-13T15:20:49.958Z,101231.06
2018-09-13T15:23:19.880Z,101236.53
2018-09-13T15:25:50.171Z,101235.48
2018-09-13T15:28:19.809Z,101245.20
2018-09-13T15:30:49.980Z,101242.56
2018-09-13T15:33:19.775Z,101238.47
2018-09-13T15:35:50.267Z,101228.54
2018-09-13T15:38:19.869Z,101238.91
2018-09-13T15:40:50.102Z,101229.72
2018-09-13T15:43:19.679Z,101238.39
2018-09-13T15:45:50.282Z,101236.95
2018-09-13T15:48:19.916Z,101233.69
2018-09-13T15:50:50.006Z,101242.44
2018-09-13T15:53:19.696Z,101234.63
2018-09-13T15:55:50.175Z,101231.27
2018-09-13T15:58:19.807Z,101236.42
2018-09-13T16:00:49.989Z,101238.41
2018-09-13T16:03:19.594Z,101237.74
2018-09-13T16:05:49.959Z,101241.00
2018-09-13T16:08:19.424Z,101244.30
2018-09-13T16:10:50.537Z,101244.56
2018-09-13T16:13:20.155Z,101238.68
2018-09-13T16:15:50.023Z,101236.03
2018-09-13T16:18:19.715Z,101237.66
2018-09-13T16:20:50.228Z,101241.50
2018-09-13T16:23:20.383Z,101234.51
2018-09-13T16:25:50.285Z,101234.77
2018-09-13T16:28:19.949Z,101238.39
2018-09-13T16:30:50.041Z,101231.19
2018-09-13T16:33:20.037Z,101223.25
2018-09-13T16:35:51.687Z,101231.45
2018-09-13T16:38:30.871Z,101233.83
2018-09-13T16:41:07.649Z,101229.86
2018-09-13T16:43:42.401Z,101231.92
2018-09-13T16:46:18.159Z,101230.25
2018-09-13T16:48:48.286Z,101231.19
2018-09-13T16:51:18.052Z,101230.80
2018-09-13T16:53:49.007Z,101237.92
2018-09-13T16:56:18.788Z,101238.18
2018-09-13T16:58:49.758Z,101243.82
2018-09-13T17:01:19.199Z,101243.47
2018-09-13T17:03:50.483Z,101247.32
2018-09-13T17:06:20.464Z,101241.03
2018-09-13T17:08:50.413Z,101252.27
2018-09-13T17:11:20.040Z,101252.27
2018-09-13T17:13:50.391Z,101246.00
2018-09-13T17:16:20.201Z,101246.00
2018-09-13T17:18:50.189Z,101248.29
2018-09-13T17:21:19.890Z,101246.33
2018-09-13T17:23:50.317Z,101256.52
2018-09-13T17:26:20.027Z,101245.80
2018-09-13T17:28:50.318Z,101249.17
2018-09-13T17:31:19.948Z,101244.47
2018-09-13T17:33:50.457Z,101245.80
2018-09-13T17:36:20.230Z,101252.29
2018-09-13T17:38:50.296Z,101252.76
2018-09-13T17:41:20.223Z,101248.52
2018-09-13T17:43:50.752Z,101247.67
2018-09-13T17:46:20.266Z,101247.14
2018-09-13T17:48:50.333Z,101255.55
2018-09-13T17:51:19.966Z,101256.61
2018-09-13T17:53:50.527Z,101260.69
2018-09-13T17:56:20.465Z,101255.13
2018-09-13T17:58:50.568Z,101251.75
2018-09-13T18:01:20.226Z,101251.95
2018-09-13T18:03:50.524Z,101253.22
2018-09-13T18:06:20.432Z,101255.94
2018-09-13T18:08:50.396Z,101258.91
2018-09-13T18:11:20.707Z,101260.05
2018-09-13T18:13:50.797Z,101259.82
2018-09-13T18:16:20.253Z,101265.34
2018-09-13T18:18:50.311Z,101264.15
2018-09-13T18:21:19.951Z,101261.82
2018-09-13T18:23:50.423Z,101272.59
2018-09-13T18:26:20.208Z,101265.59
2018-09-13T18:28:50.635Z,101268.70
2018-09-13T18:31:20.252Z,101271.37
2018-09-13T18:33:50.420Z,101274.98
2018-09-13T18:36:20.107Z,101286.38
2018-09-13T18:38:50.543Z,101278.77
2018-09-13T18:41:21.095Z,101283.39
2018-09-13T18:43:50.622Z,101288.45
2018-09-13T18:46:20.214Z,101288.67
2018-09-13T18:48:50.426Z,101291.11
2018-09-13T18:51:20.003Z,101286.41
2018-09-13T18:53:50.694Z,101293.01
2018-09-13T18:56:20.579Z,101291.95
2018-09-13T18:58:50.752Z,101291.04
2018-09-13T19:01:20.347Z,101297.64
2018-09-13T19:03:50.535Z,101298.02
2018-09-13T19:06:20.291Z,101303.48
2018-09-13T19:08:50.685Z,101298.75
2018-09-13T19:11:20.582Z,101303.75
2018-09-13T19:13:50.669Z,101306.22
2018-09-13T19:16:20.268Z,101305.53
2018-09-13T19:18:50.460Z,101309.98
2018-09-13T19:21:20.362Z,101309.98
2018-09-13T19:23:50.764Z,101315.16
2018-09-13T19:26:20.741Z,101290.00
2018-09-13T19:28:50.796Z,101312.23
2018-09-13T19:31:20.448Z,101312.63
2018-09-13T19:33:50.606Z,101321.37
2018-09-13T19:36:20.229Z,101322.59
2018-09-13T19:38:51.325Z,101321.19
2018-09-13T19:41:21.928Z,101313.09
2018-09-13T19:43:53.727Z,101314.95
2018-09-13T19:46:23.876Z,101317.42
2018-09-13T19:48:53.777Z,101322.59
2018-09-13T19:51:23.177Z,101324.63
2018-09-13T19:53:53.021Z,101334.71
2018-09-13T19:56:22.657Z,101334.30
2018-09-13T19:58:52.356Z,101334.08
2018-09-13T20:01:21.773Z,101331.09
2018-09-13T20:03:51.531Z,101332.88
2018-09-13T20:06:21.948Z,101333.78
2018-09-13T20:08:52.259Z,101338.08
2018-09-13T20:11:21.773Z,101333.19
2018-09-13T20:13:51.478Z,101334.78
2018-09-13T20:16:21.836Z,101343.38
2018-09-13T20:18:51.958Z,101342.39
2018-09-13T20:21:21.550Z,101333.70
2018-09-13T20:23:51.071Z,101340.09
2018-09-13T20:26:20.656Z,101336.76
2018-09-13T20:28:51.015Z,101335.11
2018-09-13T20:31:20.732Z,101325.64
2018-09-13T20:33:50.798Z,101335.24
2018-09-13T20:36:20.431Z,101337.47
2018-09-13T20:38:50.870Z,101341.77
2018-09-13T20:41:20.698Z,101336.67
2018-09-13T20:43:50.886Z,101340.61
2018-09-13T20:46:20.534Z,101334.62
2018-09-13T20:48:54.224Z,101332.52
2018-09-13T20:51:26.707Z,101328.83
2018-09-13T20:54:00.001Z,101318.25
2018-09-13T20:56:39.609Z,101326.94
2018-09-13T20:59:09.121Z,101333.51
2018-09-13T21:01:39.470Z,101332.73
2018-09-13T21:04:09.174Z,101332.22
2018-09-13T21:06:43.669Z,101335.16
2018-09-13T21:09:16.618Z,101329.43
2018-09-13T21:11:49.560Z,101330.81
2018-09-13T21:14:22.694Z,101329.19
2018-09-13T21:16:55.962Z,101331.66
2018-09-13T21:19:28.828Z,101331.51
2018-09-13T21:21:58.974Z,101333.68
2018-09-13T21:24:32.401Z,101332.88
2018-09-13T21:27:05.681Z,101335.90
2018-09-13T21:29:37.769Z,101341.02
2018-09-13T21:32:07.631Z,101348.36
2018-09-13T21:34:40.085Z,101337.48
2018-09-13T21:37:12.269Z,101341.78
2018-09-13T21:39:43.637Z,101337.78
2018-09-13T21:42:13.343Z,101341.73
2018-09-13T21:44:42.956Z,101328.73
2018-09-13T21:47:15.374Z,101338.95
2018-09-13T21:49:45.218Z,101336.27
2018-09-13T21:52:18.108Z,101333.30
2018-09-13T21:54:51.146Z,101335.31
2018-09-13T21:57:21.052Z,101330.14
2018-09-13T21:59:51.064Z,101334.59
2018-09-13T22:02:23.437Z,101336.16
2018-09-13T22:04:55.854Z,101333.73
2018-09-13T22:07:28.174Z,101334.59
2018-09-13T22:10:00.849Z,101344.80
2018-09-13T22:12:34.275Z,101346.02
2018-09-13T22:15:07.139Z,101345.85
2018-09-13T22:17:39.850Z,101349.34
2018-09-13T22:20:09.422Z,101348.02
2018-09-13T22:22:42.357Z,101354.19
2018-09-13T22:25:15.599Z,101360.69
2018-09-13T22:27:49.008Z,101358.17
2018-09-13T22:30:21.808Z,101361.64
2018-09-13T22:32:54.461Z,101357.43
2018-09-13T22:35:27.947Z,101356.89
2018-09-13T22:38:01.896Z,101351.64
2018-09-13T22:40:34.895Z,101351.48
2018-09-13T22:43:08.497Z,101351.64
2018-09-13T22:45:42.000Z,101348.25
2018-09-13T22:48:11.952Z,101359.69
2018-09-13T22:50:45.757Z,101348.57
2018-09-13T22:53:15.761Z,101355.59
2018-09-13T22:55:49.075Z,101358.44
2018-09-13T22:58:22.493Z,101362.61
2018-09-13T23:00:58.354Z,101363.30
2018-09-13T23:03:30.986Z,101372.17
2018-09-13T23:06:01.457Z,101372.48
2018-09-13T23:08:31.821Z,101368.95
2018-09-13T23:11:05.734Z,101371.89
2018-09-13T23:13:39.305Z,101368.83
2018-09-13T23:16:12.747Z,101369.19
2018-09-13T23:18:45.985Z,101374.66
2018-09-13T23:21:16.137Z,101372.86
2018-09-13T23:23:47.979Z,101378.52
2018-09-13T23:26:18.303Z,101382.68
2018-09-13T23:28:48.107Z,101380.28
2018-09-13T23:31:21.097Z,101387.05
2018-09-13T23:33:51.856Z,101382.80
2018-09-13T23:36:22.265Z,101372.46
2018-09-13T23:38:54.651Z,101370.78
2018-09-13T23:41:24.183Z,101376.12
2018-09-13T23:43:54.320Z,101375.00
2018-09-13T23:46:25.734Z,101375.95
2018-09-13T23:48:56.715Z,101376.60
2018-09-13T23:51:30.060Z,101374.62
2018-09-13T23:54:03.448Z,101377.34
2018-09-13T23:56:33.699Z,101380.25
2018-09-13T23:59:03.954Z,101386.45
